createdAt,value
2019-01-28T00:01:08.607Z,1.53
2019-01-28T00:03:35.859Z,1.57
2019-01-28T00:06:03.081Z,1.40
2019-01-28T00:08:30.286Z,1.50
2019-01-28T00:10:57.599Z,1.43
2019-01-28T00:13:24.785Z,1.20
2019-01-28T00:15:52.019Z,1.00
2019-01-28T00:18:19.215Z,1.37
2019-01-28T00:20:46.434Z,1.30
2019-01-28T00:23:13.597Z,1.30
2019-01-28T00:25:40.822Z,1.53
2019-01-28T00:28:08.066Z,1.10
2019-01-28T00:30:35.255Z,1.40
2019-01-28T00:33:02.450Z,1.40
2019-01-28T00:35:29.627Z,1.30
2019-01-28T00:37:56.859Z,1.03
2019-01-28T00:40:24.149Z,1.67
2019-01-28T00:42:51.482Z,1.20
2019-01-28T00:45:18.654Z,1.10
2019-01-28T00:47:45.856Z,1.10
2019-01-28T00:50:13.038Z,1.00
2019-01-28T00:52:40.221Z,1.10
2019-01-28T00:55:08.735Z,1.27
2019-01-28T00:57:35.919Z,1.30
2019-01-28T01:00:03.716Z,1.17
2019-01-28T01:02:30.893Z,1.27
2019-01-28T01:04:58.153Z,1.17
2019-01-28T01:07:25.344Z,1.17
2019-01-28T01:09:52.560Z,1.10
2019-01-28T01:12:19.745Z,1.20
2019-01-28T01:14:46.940Z,1.20
2019-01-28T01:17:14.203Z,1.17
2019-01-28T01:19:41.380Z,1.10
2019-01-28T01:22:08.575Z,1.10
2019-01-28T01:24:35.793Z,1.10
2019-01-28T01:27:02.982Z,1.10
2019-01-28T01:29:30.195Z,0.90
2019-01-28T01:31:57.362Z,1.47
2019-01-28T01:34:24.590Z,1.20
2019-01-28T01:36:51.797Z,1.53
2019-01-28T01:39:18.967Z,1.20
2019-01-28T01:41:46.180Z,1.33
2019-01-28T01:44:13.371Z,1.20
2019-01-28T01:46:40.603Z,0.90
2019-01-28T01:49:07.776Z,1.13
2019-01-28T01:51:35.108Z,1.03
2019-01-28T01:54:02.305Z,1.10
2019-01-28T01:56:29.536Z,0.90
2019-01-28T01:58:56.741Z,1.13
2019-01-28T02:01:23.973Z,1.17
2019-01-28T02:03:51.148Z,1.57
2019-01-28T02:06:18.347Z,0.97
2019-01-28T02:08:45.672Z,1.17
2019-01-28T02:11:12.870Z,1.23
2019-01-28T02:13:40.018Z,1.20
2019-01-28T02:16:07.245Z,1.37
2019-01-28T02:18:34.456Z,1.00
2019-01-28T02:21:01.691Z,1.47
2019-01-28T02:23:28.927Z,1.20
2019-01-28T02:25:56.132Z,1.03
2019-01-28T02:28:23.380Z,1.17
2019-01-28T02:30:50.570Z,1.80
2019-01-28T02:33:17.823Z,0.97
2019-01-28T02:35:45.039Z,1.10
2019-01-28T02:38:12.255Z,1.07
2019-01-28T02:40:39.447Z,1.17
2019-01-28T02:43:06.622Z,1.10
2019-01-28T02:45:33.858Z,0.90
2019-01-28T02:48:01.082Z,0.90
2019-01-28T02:50:28.292Z,1.00
2019-01-28T02:52:55.502Z,1.20
2019-01-28T02:55:22.707Z,1.23
2019-01-28T02:57:49.913Z,1.10
2019-01-28T03:00:19.316Z,1.50
2019-01-28T03:02:46.461Z,1.20
2019-01-28T03:05:14.025Z,0.80
2019-01-28T03:07:41.209Z,1.10
2019-01-28T03:10:11.990Z,1.20
2019-01-28T03:12:39.191Z,0.97
2019-01-28T03:15:06.819Z,0.93
2019-01-28T03:17:34.089Z,1.10
2019-01-28T03:20:01.322Z,1.07
2019-01-28T03:22:28.438Z,0.93
2019-01-28T03:24:55.630Z,0.90
2019-01-28T03:27:22.875Z,1.07
2019-01-28T03:29:50.090Z,1.07
2019-01-28T03:32:17.258Z,0.97
2019-01-28T03:34:44.435Z,0.90
2019-01-28T03:37:11.674Z,1.10
2019-01-28T03:39:38.861Z,1.00
2019-01-28T03:42:06.082Z,0.93
2019-01-28T03:44:33.283Z,1.00
2019-01-28T03:47:00.486Z,1.10
2019-01-28T03:49:27.734Z,1.13
2019-01-28T03:51:55.144Z,1.00
2019-01-28T03:54:22.357Z,1.57
2019-01-28T03:56:49.564Z,1.00
2019-01-28T03:59:16.779Z,1.30
2019-01-28T04:01:44.003Z,1.10
2019-01-28T04:04:11.219Z,1.10
2019-01-28T04:06:38.459Z,1.10
2019-01-28T04:09:08.081Z,1.10
2019-01-28T04:11:35.288Z,0.90
2019-01-28T04:14:02.523Z,1.30
2019-01-28T04:16:29.722Z,1.10
2019-01-28T04:18:56.951Z,1.00
2019-01-28T04:21:24.168Z,0.80
2019-01-28T04:23:51.410Z,1.00
2019-01-28T04:26:21.412Z,1.20
2019-01-28T04:28:48.819Z,1.00
2019-01-28T04:31:15.989Z,1.00
2019-01-28T04:33:43.161Z,1.00
2019-01-28T04:36:10.415Z,1.20
2019-01-28T04:38:37.564Z,1.13
2019-01-28T04:41:04.815Z,1.10
2019-01-28T04:43:32.141Z,1.50
2019-01-28T04:45:59.334Z,1.17
2019-01-28T04:48:26.510Z,0.90
2019-01-28T04:50:53.743Z,0.90
2019-01-28T04:53:20.986Z,1.07
2019-01-28T04:55:48.181Z,0.90
2019-01-28T04:58:15.356Z,0.80
2019-01-28T05:00:42.577Z,1.10
2019-01-28T05:03:09.783Z,0.93
2019-01-28T05:05:36.964Z,1.37
2019-01-28T05:08:04.237Z,0.90
2019-01-28T05:10:31.394Z,1.20
2019-01-28T05:12:58.619Z,0.90
2019-01-28T05:15:25.940Z,1.20
2019-01-28T05:17:53.172Z,1.17
2019-01-28T05:20:20.411Z,1.10
2019-01-28T05:22:47.602Z,1.33
2019-01-28T05:25:15.239Z,1.17
2019-01-28T05:27:42.813Z,1.20
2019-01-28T05:30:15.588Z,1.07
2019-01-28T05:32:42.788Z,1.30
2019-01-28T05:35:11.378Z,1.10
2019-01-28T05:37:38.822Z,1.00
2019-01-28T05:40:07.667Z,1.00
2019-01-28T05:42:34.898Z,0.83
2019-01-28T05:45:02.111Z,1.17
2019-01-28T05:47:29.306Z,0.90
2019-01-28T05:49:56.502Z,1.40
2019-01-28T05:52:23.695Z,1.13
2019-01-28T05:54:50.938Z,1.10
2019-01-28T05:57:18.199Z,1.20
2019-01-28T05:59:45.395Z,1.10
2019-01-28T06:02:12.559Z,1.07
2019-01-28T06:04:39.818Z,1.10
2019-01-28T06:07:07.082Z,1.00
2019-01-28T06:09:34.231Z,1.00
2019-01-28T06:12:01.462Z,1.00
2019-01-28T06:14:28.661Z,1.00
2019-01-28T06:16:55.847Z,0.90
2019-01-28T06:19:23.094Z,1.30
2019-01-28T06:21:50.316Z,1.17
2019-01-28T06:24:17.474Z,1.00
2019-01-28T06:26:44.676Z,1.20
2019-01-28T06:29:11.844Z,1.00
2019-01-28T06:31:39.025Z,1.30
2019-01-28T06:34:06.230Z,2.03
2019-01-28T06:36:38.016Z,2.27
2019-01-28T06:39:13.873Z,2.60
2019-01-28T06:41:41.161Z,1.50
2019-01-28T06:44:08.318Z,1.70
2019-01-28T06:46:35.642Z,1.90
2019-01-28T06:49:02.906Z,1.77
2019-01-28T06:51:35.510Z,1.40
2019-01-28T06:54:02.778Z,1.37
2019-01-28T06:56:30.207Z,1.30
2019-01-28T06:58:57.432Z,1.63
2019-01-28T07:01:24.725Z,1.30
2019-01-28T07:03:51.960Z,1.40
2019-01-28T07:06:19.169Z,2.00
2019-01-28T07:08:46.447Z,1.50
2019-01-28T07:11:13.613Z,1.57
2019-01-28T07:13:40.899Z,1.37
2019-01-28T07:16:08.078Z,1.93
2019-01-28T07:18:35.357Z,1.50
2019-01-28T07:21:02.547Z,1.60
2019-01-28T07:23:29.714Z,1.57
2019-01-28T07:25:56.930Z,2.10
2019-01-28T07:28:24.144Z,2.57
2019-01-28T07:30:51.385Z,1.53
2019-01-28T07:33:18.689Z,2.70
2019-01-28T07:35:45.943Z,2.23
2019-01-28T07:38:13.114Z,1.83
2019-01-28T07:40:40.334Z,2.00
2019-01-28T07:43:07.571Z,2.07
2019-01-28T07:45:44.695Z,1.80
2019-01-28T07:48:05.753Z,2.13
2019-01-28T07:50:32.927Z,2.50
2019-01-28T07:53:00.107Z,2.03
2019-01-28T07:55:27.259Z,2.20
2019-01-28T07:57:54.466Z,2.10
2019-01-28T08:00:23.882Z,2.00
2019-01-28T08:02:51.146Z,1.40
2019-01-28T08:05:18.358Z,2.23
2019-01-28T08:07:45.642Z,1.80
2019-01-28T08:10:13.889Z,2.07
2019-01-28T08:12:41.060Z,1.60
2019-01-28T08:15:10.076Z,1.93
2019-01-28T08:17:37.279Z,2.10
2019-01-28T08:20:11.469Z,1.57
2019-01-28T08:22:34.843Z,1.77
2019-01-28T08:25:02.055Z,1.67
2019-01-28T08:27:29.283Z,1.57
2019-01-28T08:29:56.791Z,1.60
2019-01-28T08:32:26.891Z,1.57
2019-01-28T08:34:54.062Z,1.70
2019-01-28T08:37:21.282Z,1.60
2019-01-28T08:39:48.488Z,1.50
2019-01-28T08:42:15.671Z,1.60
2019-01-28T08:44:42.823Z,1.30
2019-01-28T08:47:10.019Z,1.80
2019-01-28T08:49:37.199Z,1.50
2019-01-28T08:52:04.391Z,1.40
2019-01-28T08:54:31.625Z,1.30
2019-01-28T08:56:58.799Z,1.33
2019-01-28T08:59:26.013Z,1.40
2019-01-28T09:01:53.178Z,1.50
2019-01-28T09:04:20.447Z,1.37
2019-01-28T09:06:47.654Z,1.50
2019-01-28T09:09:14.867Z,1.33
2019-01-28T09:11:42.060Z,1.40
2019-01-28T09:14:09.271Z,2.23
2019-01-28T09:16:36.452Z,1.50
2019-01-28T09:19:03.821Z,1.20
2019-01-28T09:21:31.034Z,1.30
2019-01-28T09:23:58.207Z,1.90
2019-01-28T09:26:25.476Z,1.30
2019-01-28T09:28:52.673Z,1.50
2019-01-28T09:31:19.948Z,1.40
2019-01-28T09:33:47.118Z,1.00
2019-01-28T09:36:14.357Z,1.40
2019-01-28T09:38:41.539Z,1.23
2019-01-28T09:41:08.717Z,1.50
2019-01-28T09:43:35.946Z,1.40
2019-01-28T09:46:03.197Z,1.50
2019-01-28T09:48:34.337Z,1.27
2019-01-28T09:50:59.480Z,1.20
2019-01-28T09:53:29.316Z,1.20
2019-01-28T09:55:55.844Z,1.20
2019-01-28T09:58:23.246Z,1.30
2019-01-28T10:00:50.987Z,1.47
2019-01-28T10:03:18.221Z,1.30
2019-01-28T10:05:45.518Z,1.40
2019-01-28T10:08:12.682Z,1.00
2019-01-28T10:10:39.977Z,1.33
2019-01-28T10:13:07.255Z,1.33
2019-01-28T10:15:34.469Z,1.50
2019-01-28T10:18:01.670Z,1.60
2019-01-28T10:20:31.024Z,1.17
2019-01-28T10:22:58.235Z,1.50
2019-01-28T10:25:25.419Z,1.30
2019-01-28T10:27:54.800Z,1.57
2019-01-28T10:30:24.878Z,1.23
2019-01-28T10:32:52.091Z,1.03
2019-01-28T10:35:20.017Z,1.37
2019-01-28T10:37:47.221Z,1.17
2019-01-28T10:40:17.598Z,1.60
2019-01-28T10:42:44.822Z,1.10
2019-01-28T10:45:12.062Z,1.17
2019-01-28T10:47:39.271Z,1.13
2019-01-28T10:50:07.819Z,1.10
2019-01-28T10:52:35.140Z,1.10
2019-01-28T10:55:02.315Z,1.30
2019-01-28T10:57:29.496Z,1.40
2019-01-28T10:59:56.690Z,1.40
2019-01-28T11:02:23.885Z,1.10
2019-01-28T11:04:51.111Z,1.30
2019-01-28T11:07:18.318Z,1.10
2019-01-28T11:09:45.644Z,1.20
2019-01-28T11:12:12.828Z,1.10
2019-01-28T11:14:40.051Z,1.47
2019-01-28T11:17:07.300Z,1.50
2019-01-28T11:19:36.523Z,1.10
2019-01-28T11:22:04.076Z,1.20
2019-01-28T11:24:31.459Z,2.13
2019-01-28T11:26:58.702Z,1.50
2019-01-28T11:29:25.949Z,1.50
2019-01-28T11:31:56.495Z,2.10
2019-01-28T11:34:24.684Z,1.33
2019-01-28T11:36:52.074Z,1.63
2019-01-28T11:39:19.412Z,1.77
2019-01-28T11:41:46.695Z,1.27
2019-01-28T11:44:14.097Z,1.70
2019-01-28T11:46:41.487Z,1.50
2019-01-28T11:49:08.793Z,1.10
2019-01-28T11:51:35.967Z,1.70
2019-01-28T11:54:05.304Z,2.00
2019-01-28T11:56:34.009Z,2.83
2019-01-28T11:59:01.758Z,2.87
2019-01-28T12:01:32.286Z,3.67
2019-01-28T12:04:07.135Z,2.80
2019-01-28T12:06:34.886Z,3.30
2019-01-28T12:09:05.785Z,3.10
2019-01-28T12:11:34.754Z,3.40
2019-01-28T12:14:09.445Z,3.23
2019-01-28T12:16:40.251Z,2.77
2019-01-28T12:19:14.022Z,3.13
2019-01-28T12:21:36.729Z,2.90
2019-01-28T12:24:03.945Z,3.43
2019-01-28T12:26:33.633Z,2.50
2019-01-28T12:29:03.322Z,2.73
2019-01-28T12:31:32.495Z,3.17
2019-01-28T12:34:03.419Z,3.03
2019-01-28T12:36:30.732Z,2.60
2019-01-28T12:38:57.936Z,2.37
2019-01-28T12:41:25.881Z,2.37
2019-01-28T12:43:53.467Z,2.87
2019-01-28T12:46:20.726Z,2.70
2019-01-28T12:48:48.415Z,2.50
2019-01-28T12:51:16.460Z,2.73
2019-01-28T12:53:43.718Z,2.67
2019-01-28T12:56:11.270Z,2.87
2019-01-28T12:58:38.658Z,2.20
2019-01-28T13:01:06.796Z,2.30
2019-01-28T13:03:35.051Z,2.57
2019-01-28T13:06:04.309Z,2.33
2019-01-28T13:08:32.586Z,2.30
2019-01-28T13:11:03.267Z,2.00
2019-01-28T13:13:34.532Z,2.57
2019-01-28T13:16:01.794Z,2.10
2019-01-28T13:18:32.322Z,2.17
2019-01-28T13:20:59.630Z,2.77
2019-01-28T13:23:30.066Z,2.90
2019-01-28T13:25:57.305Z,2.50
2019-01-28T13:28:25.834Z,2.63
2019-01-28T13:30:53.336Z,2.40
2019-01-28T13:33:22.500Z,3.23
2019-01-28T13:35:49.780Z,2.17
2019-01-28T13:38:17.004Z,2.33
2019-01-28T13:40:44.215Z,2.17
2019-01-28T13:43:11.402Z,2.33
2019-01-28T13:45:39.504Z,1.90
2019-01-28T13:48:09.340Z,2.60
2019-01-28T13:50:36.586Z,2.73
2019-01-28T13:53:03.754Z,2.87
2019-01-28T13:55:30.951Z,2.30
2019-01-28T13:57:58.079Z,2.33
2019-01-28T14:00:26.727Z,3.00
2019-01-28T14:02:53.951Z,2.47
2019-01-28T14:05:21.177Z,2.20
2019-01-28T14:07:48.442Z,2.90
2019-01-28T14:10:15.716Z,3.23
2019-01-28T14:12:42.929Z,2.17
2019-01-28T14:15:13.921Z,2.27
2019-01-28T14:17:41.255Z,3.07
2019-01-28T14:20:11.305Z,3.00
2019-01-28T14:22:38.495Z,2.00
2019-01-28T14:25:06.078Z,2.40
2019-01-28T14:27:33.261Z,2.43
2019-01-28T14:30:00.451Z,2.00
2019-01-28T14:32:27.666Z,2.07
2019-01-28T14:34:54.831Z,2.20
2019-01-28T14:37:22.143Z,2.43
2019-01-28T14:39:49.356Z,2.50
2019-01-28T14:42:16.545Z,2.50
2019-01-28T14:44:43.840Z,2.30
2019-01-28T14:47:11.027Z,2.17
2019-01-28T14:49:38.267Z,2.23
2019-01-28T14:52:05.465Z,2.77
2019-01-28T14:54:32.621Z,2.00
2019-01-28T14:56:59.801Z,2.03
2019-01-28T14:59:27.003Z,2.40
2019-01-28T15:01:54.356Z,2.67
2019-01-28T15:04:21.528Z,2.10
2019-01-28T15:06:48.768Z,1.87
2019-01-28T15:09:16.190Z,2.53
2019-01-28T15:11:43.383Z,3.07
2019-01-28T15:14:10.581Z,2.20
2019-01-28T15:16:37.769Z,1.80
2019-01-28T15:19:04.993Z,1.77
2019-01-28T15:21:32.227Z,1.63
2019-01-28T15:23:59.595Z,1.80
2019-01-28T15:26:26.788Z,1.97
2019-01-28T15:28:54.015Z,2.00
2019-01-28T15:31:21.225Z,2.07
2019-01-28T15:33:48.598Z,2.00
2019-01-28T15:36:15.926Z,1.53
2019-01-28T15:38:43.164Z,2.30
2019-01-28T15:41:10.401Z,2.10
2019-01-28T15:43:37.585Z,2.87
2019-01-28T15:46:04.810Z,1.53
2019-01-28T15:48:32.046Z,1.83
2019-01-28T15:50:59.243Z,2.43
2019-01-28T15:53:26.432Z,1.63
2019-01-28T15:55:53.621Z,1.77
2019-01-28T15:58:21.064Z,2.03
2019-01-28T16:00:48.272Z,1.80
2019-01-28T16:03:15.538Z,2.00
2019-01-28T16:05:42.690Z,2.00
2019-01-28T16:08:09.862Z,2.23
2019-01-28T16:10:37.072Z,1.70
2019-01-28T16:13:04.373Z,2.13
2019-01-28T16:15:39.957Z,1.80
2019-01-28T16:18:09.059Z,1.60
2019-01-28T16:20:36.379Z,1.80
2019-01-28T16:23:04.078Z,1.73
2019-01-28T16:25:31.298Z,1.57
2019-01-28T16:27:58.631Z,2.00
2019-01-28T16:30:26.826Z,1.40
2019-01-28T16:32:54.054Z,1.60
2019-01-28T16:35:21.278Z,1.63
2019-01-28T16:37:48.532Z,1.77
2019-01-28T16:40:17.061Z,1.70
2019-01-28T16:42:44.287Z,1.60
2019-01-28T16:45:12.762Z,1.67
2019-01-28T16:47:39.972Z,1.70
2019-01-28T16:50:08.335Z,1.30
2019-01-28T16:52:35.540Z,1.40
2019-01-28T16:55:02.904Z,1.50
2019-01-28T16:57:30.087Z,1.87
2019-01-28T16:59:57.233Z,1.80
2019-01-28T17:02:24.491Z,1.70
2019-01-28T17:04:51.665Z,1.60
2019-01-28T17:07:18.881Z,1.67
2019-01-28T17:09:46.110Z,2.97
2019-01-28T17:12:14.357Z,2.80
2019-01-28T17:14:41.708Z,2.10
2019-01-28T17:17:08.908Z,2.07
2019-01-28T17:19:38.255Z,2.50
2019-01-28T17:22:08.075Z,1.53
2019-01-28T17:24:42.117Z,2.07
2019-01-28T17:27:09.636Z,2.17
2019-01-28T17:29:36.946Z,2.40
2019-01-28T17:32:04.206Z,1.97
2019-01-28T17:34:31.402Z,1.73
2019-01-28T17:36:58.701Z,2.13
2019-01-28T17:39:25.923Z,1.63
2019-01-28T17:41:53.175Z,1.73
2019-01-28T17:44:20.370Z,1.97
2019-01-28T17:46:47.531Z,2.13
2019-01-28T17:49:14.746Z,2.03
2019-01-28T17:51:41.937Z,1.70
2019-01-28T17:54:09.253Z,1.93
2019-01-28T17:56:36.434Z,2.70
2019-01-28T17:59:03.648Z,2.13
2019-01-28T18:01:30.833Z,1.50
2019-01-28T18:03:58.027Z,2.13
2019-01-28T18:06:25.285Z,1.90
2019-01-28T18:08:52.470Z,1.90
2019-01-28T18:11:19.664Z,2.73
2019-01-28T18:13:46.910Z,2.10
2019-01-28T18:16:14.148Z,1.70
2019-01-28T18:18:41.314Z,1.93
2019-01-28T18:21:08.672Z,1.60
2019-01-28T18:23:45.949Z,1.70
2019-01-28T18:26:13.242Z,1.87
2019-01-28T18:28:40.462Z,1.70
2019-01-28T18:31:07.794Z,1.93
2019-01-28T18:33:35.011Z,1.80
2019-01-28T18:36:05.734Z,2.50
2019-01-28T18:38:31.356Z,2.63
2019-01-28T18:40:58.531Z,1.80
2019-01-28T18:43:25.754Z,1.73
2019-01-28T18:45:52.943Z,1.80
2019-01-28T18:48:20.205Z,1.80
2019-01-28T18:50:47.389Z,1.47
2019-01-28T18:53:14.570Z,2.00
2019-01-28T18:55:41.824Z,1.70
2019-01-28T18:58:09.158Z,2.47
2019-01-28T19:00:36.354Z,1.97
2019-01-28T19:03:03.616Z,1.80
2019-01-28T19:05:50.396Z,1.87
2019-01-28T19:08:36.071Z,1.80
2019-01-28T19:11:29.466Z,1.47
2019-01-28T19:14:20.254Z,1.50
2019-01-28T19:17:23.541Z,1.60
2019-01-28T19:20:09.357Z,1.80
2019-01-28T19:22:36.648Z,1.70
2019-01-28T19:25:04.995Z,2.23
2019-01-28T19:27:33.214Z,1.50
2019-01-28T19:30:00.766Z,1.93
2019-01-28T19:32:28.051Z,2.13
2019-01-28T19:34:55.316Z,2.00
2019-01-28T19:37:22.528Z,2.10
2019-01-28T19:39:49.745Z,2.10
2019-01-28T19:42:16.997Z,1.83
2019-01-28T19:44:49.981Z,1.93
2019-01-28T19:47:20.862Z,2.10
2019-01-28T19:49:53.890Z,1.90
2019-01-28T19:52:21.098Z,2.13
2019-01-28T19:54:49.866Z,2.27
2019-01-28T19:57:17.072Z,1.77
2019-01-28T19:59:44.294Z,2.73
2019-01-28T20:02:11.577Z,1.83
2019-01-28T20:04:39.199Z,2.07
2019-01-28T20:07:07.040Z,1.90
2019-01-28T20:09:37.476Z,2.13
2019-01-28T20:12:04.704Z,1.97
2019-01-28T20:14:33.442Z,1.90
2019-01-28T20:17:00.810Z,1.43
2019-01-28T20:19:27.994Z,1.97
2019-01-28T20:21:55.294Z,1.83
2019-01-28T20:24:22.504Z,2.00
2019-01-28T20:26:49.786Z,1.60
2019-01-28T20:29:17.002Z,1.80
2019-01-28T20:31:44.198Z,1.97
2019-01-28T20:34:11.424Z,1.70
2019-01-28T20:36:38.659Z,1.87
2019-01-28T20:39:08.188Z,2.00
2019-01-28T20:41:35.398Z,1.57
2019-01-28T20:44:02.724Z,1.23
2019-01-28T20:46:29.969Z,1.70
2019-01-28T20:48:57.220Z,1.77
2019-01-28T20:51:31.891Z,1.53
2019-01-28T20:53:53.513Z,1.60
2019-01-28T20:56:20.760Z,1.90
2019-01-28T20:58:47.975Z,1.73
2019-01-28T21:01:15.210Z,2.10
2019-01-28T21:03:42.408Z,1.40
2019-01-28T21:06:09.816Z,1.60
2019-01-28T21:08:37.072Z,1.47
2019-01-28T21:11:04.352Z,1.80
2019-01-28T21:13:31.676Z,2.00
2019-01-28T21:15:59.153Z,1.67
2019-01-28T21:18:26.464Z,1.63
2019-01-28T21:20:53.731Z,1.40
2019-01-28T21:23:20.935Z,1.70
2019-01-28T21:26:00.204Z,1.40
2019-01-28T21:28:31.629Z,1.53
2019-01-28T21:31:00.488Z,1.60
2019-01-28T21:33:28.723Z,1.40
2019-01-28T21:36:18.015Z,1.33
2019-01-28T21:38:49.638Z,1.10
2019-01-28T21:41:22.126Z,1.80
2019-01-28T21:43:51.628Z,1.30
2019-01-28T21:46:19.451Z,1.70
2019-01-28T21:48:47.375Z,1.40
2019-01-28T21:51:14.798Z,1.70
2019-01-28T21:53:42.379Z,1.80
2019-01-28T21:56:10.172Z,1.27
2019-01-28T21:58:39.308Z,2.50
2019-01-28T22:01:07.279Z,2.10
2019-01-28T22:03:34.559Z,1.23
2019-01-28T22:06:01.813Z,1.87
2019-01-28T22:08:29.041Z,1.50
2019-01-28T22:10:58.350Z,1.57
2019-01-28T22:13:25.685Z,1.37
2019-01-28T22:15:53.231Z,1.37
2019-01-28T22:18:20.435Z,1.53
2019-01-28T22:20:48.027Z,1.30
2019-01-28T22:23:15.459Z,1.50
2019-01-28T22:25:42.842Z,1.33
2019-01-28T22:28:10.060Z,1.47
2019-01-28T22:30:37.898Z,1.10
2019-01-28T22:33:08.911Z,1.77
2019-01-28T22:35:36.530Z,1.60
2019-01-28T22:38:05.000Z,1.87
2019-01-28T22:40:32.536Z,1.60
2019-01-28T22:43:00.173Z,1.33
2019-01-28T22:45:27.744Z,1.60
2019-01-28T22:47:55.120Z,1.57
2019-01-28T22:50:24.076Z,1.57
2019-01-28T22:52:53.362Z,1.83
2019-01-28T22:55:22.733Z,1.60
2019-01-28T22:57:52.200Z,1.60
2019-01-28T23:00:47.464Z,1.40
2019-01-28T23:06:06.862Z,1.23
2019-01-28T23:08:36.272Z,1.30
2019-01-28T23:11:04.015Z,1.37
2019-01-28T23:13:33.218Z,1.20
2019-01-28T23:16:01.535Z,1.27
2019-01-28T23:18:29.889Z,1.20
2019-01-28T23:20:59.169Z,1.40
2019-01-28T23:23:26.654Z,1.50
2019-01-28T23:25:53.843Z,1.30
2019-01-28T23:28:21.068Z,1.80
2019-01-28T23:30:48.290Z,1.50
2019-01-28T23:33:15.474Z,1.70
2019-01-28T23:35:42.698Z,2.00
2019-01-28T23:38:09.918Z,1.63
2019-01-28T23:40:37.322Z,1.60
2019-01-28T23:43:07.373Z,1.60
2019-01-28T23:45:34.922Z,1.40
2019-01-28T23:48:02.203Z,1.77
2019-01-28T23:50:29.409Z,1.50
2019-01-28T23:52:56.816Z,1.20
2019-01-28T23:55:26.363Z,1.70
2019-01-28T23:57:56.944Z,1.40
